createdAt,value
2022-07-30T00:00:46.049Z,100185.84
2022-07-30T00:01:48.301Z,100192.66
2022-07-30T00:02:50.878Z,100191.00
2022-07-30T00:03:53.190Z,100191.34
2022-07-30T00:04:55.439Z,100195.31
2022-07-30T00:05:57.628Z,100198.50
2022-07-30T00:07:00.750Z,100203.31
2022-07-30T00:08:03.686Z,100201.66
2022-07-30T00:09:05.993Z,100200.84
2022-07-30T00:10:08.484Z,100202.00
2022-07-30T00:11:12.106Z,100193.06
2022-07-30T00:12:14.369Z,100196.25
2022-07-30T00:13:16.677Z,100192.63
2022-07-30T00:14:18.878Z,100194.94
2022-07-30T00:15:21.237Z,100198.91
2022-07-30T00:16:29.225Z,100195.28
2022-07-30T00:17:31.480Z,100191.66
2022-07-30T00:18:34.191Z,100197.63
2022-07-30T00:19:37.077Z,100193.19
2022-07-30T00:20:43.616Z,100198.31
2022-07-30T00:21:49.385Z,100197.50
2022-07-30T00:22:52.062Z,100198.66
2022-07-30T00:24:01.467Z,100196.53
2022-07-30T00:25:05.718Z,100208.13
2022-07-30T00:26:07.935Z,100202.06
2022-07-30T00:27:10.173Z,100203.22
2022-07-30T00:28:15.457Z,100209.19
2022-07-30T00:29:17.688Z,100207.03
2022-07-30T00:30:20.198Z,100203.75
2022-07-30T00:31:22.425Z,100204.56
2022-07-30T00:32:24.602Z,100208.91
2022-07-30T00:33:27.384Z,100209.25
2022-07-30T00:34:29.590Z,100209.59
2022-07-30T00:35:31.822Z,100210.25
2022-07-30T00:36:34.175Z,100201.03
2022-07-30T00:37:42.771Z,100202.50
2022-07-30T00:38:47.809Z,100211.28
2022-07-30T00:39:50.055Z,100208.81
2022-07-30T00:40:52.385Z,100206.31
2022-07-30T00:42:05.687Z,100213.47
2022-07-30T00:43:07.939Z,100207.38
2022-07-30T00:44:15.483Z,100206.56
2022-07-30T00:45:20.833Z,100206.41
2022-07-30T00:46:29.002Z,100210.38
2022-07-30T00:47:31.175Z,100209.09
2022-07-30T00:48:36.143Z,100209.88
2022-07-30T00:49:42.600Z,100209.78
2022-07-30T00:50:46.530Z,100210.09
2022-07-30T00:51:52.066Z,100212.44
2022-07-30T00:53:01.898Z,100211.94
2022-07-30T00:54:04.130Z,100208.66
2022-07-30T00:55:09.231Z,100205.38
2022-07-30T00:56:14.039Z,100201.25
2022-07-30T00:57:16.256Z,100206.06
2022-07-30T00:58:18.614Z,100197.97
2022-07-30T00:59:21.585Z,100200.78
2022-07-30T01:00:25.587Z,100205.09
2022-07-30T01:01:27.819Z,100196.16
2022-07-30T01:02:32.527Z,100199.31
2022-07-30T01:03:34.863Z,100200.47
2022-07-30T01:04:37.037Z,100200.81
2022-07-30T01:05:39.299Z,100203.97
2022-07-30T01:06:41.579Z,100200.69
2022-07-30T01:07:44.422Z,100204.66
2022-07-30T01:08:49.611Z,100193.75
2022-07-30T01:09:51.826Z,100201.38
2022-07-30T01:10:54.036Z,100204.50
2022-07-30T01:11:56.777Z,100201.22
2022-07-30T01:12:59.628Z,100195.94
2022-07-30T01:14:06.955Z,100195.09
2022-07-30T01:15:11.125Z,100194.63
2022-07-30T01:16:14.864Z,100196.94
2022-07-30T01:17:17.105Z,100199.28
2022-07-30T01:18:23.285Z,100202.41
2022-07-30T01:19:48.178Z,100191.53
2022-07-30T01:21:07.673Z,100201.78
2022-07-30T01:22:16.471Z,100196.53
2022-07-30T01:23:31.403Z,100198.81
2022-07-30T01:24:43.023Z,100193.53
2022-07-30T01:26:10.024Z,100188.59
2022-07-30T01:27:19.405Z,100179.19
2022-07-30T01:28:27.773Z,100185.13
2022-07-30T01:29:32.257Z,100183.50
2022-07-30T01:30:38.692Z,100176.59
2022-07-30T01:31:43.906Z,100186.16
2022-07-30T01:32:47.644Z,100182.84
2022-07-30T01:33:50.775Z,100178.72
2022-07-30T01:34:57.287Z,100178.72
2022-07-30T01:36:00.945Z,100174.97
2022-07-30T01:37:05.393Z,100175.31
2022-07-30T01:38:11.427Z,100180.41
2022-07-30T01:39:15.272Z,100177.59
2022-07-30T01:40:18.471Z,100174.34
2022-07-30T01:41:21.425Z,100177.16
2022-07-30T01:42:26.687Z,100176.66
2022-07-30T01:43:30.938Z,100177.78
2022-07-30T01:44:34.946Z,100180.94
2022-07-30T01:45:42.100Z,100187.72
2022-07-30T01:46:48.066Z,100186.91
2022-07-30T01:47:53.369Z,100194.81
2022-07-30T01:48:58.246Z,100191.56
2022-07-30T01:50:02.901Z,100185.94
2022-07-30T01:51:08.929Z,100201.13
2022-07-30T01:52:12.338Z,100192.19
2022-07-30T01:53:20.980Z,100200.63
2022-07-30T01:54:25.486Z,100190.88
2022-07-30T01:55:34.756Z,100194.88
2022-07-30T01:56:37.757Z,100198.84
2022-07-30T01:57:46.449Z,100194.38
2022-07-30T01:58:51.103Z,100191.06
2022-07-30T02:00:03.610Z,100190.25
2022-07-30T02:01:18.852Z,100196.22
2022-07-30T02:02:21.310Z,100199.34
2022-07-30T02:03:26.218Z,100203.31
2022-07-30T02:04:28.739Z,100197.19
2022-07-30T02:05:37.029Z,100191.94
2022-07-30T02:06:45.093Z,100198.69
2022-07-30T02:07:57.861Z,100197.06
2022-07-30T02:09:10.820Z,100191.75
2022-07-30T02:10:23.695Z,100191.28
2022-07-30T02:11:44.419Z,100192.09
2022-07-30T02:12:53.968Z,100196.06
2022-07-30T02:13:57.974Z,100185.19
2022-07-30T02:15:26.507Z,100191.94
2022-07-30T02:16:34.925Z,100185.84
2022-07-30T02:17:50.770Z,100189.00
2022-07-30T02:19:04.494Z,100183.38
2022-07-30T02:20:13.362Z,100181.19
2022-07-30T02:21:19.649Z,100186.00
2022-07-30T02:22:25.688Z,100179.88
2022-07-30T02:23:29.739Z,100177.41
2022-07-30T02:24:36.468Z,100191.78
2022-07-30T02:25:50.589Z,100188.47
2022-07-30T02:26:58.386Z,100186.00
2022-07-30T02:28:09.825Z,100182.38
2022-07-30T02:29:13.451Z,100183.88
2022-07-30T02:30:16.037Z,100188.66
2022-07-30T02:31:25.114Z,100189.00
2022-07-30T02:32:35.867Z,100186.53
2022-07-30T02:33:42.120Z,100185.72
2022-07-30T02:34:56.104Z,100188.00
2022-07-30T02:35:59.447Z,100186.34
2022-07-30T02:37:03.577Z,100184.38
2022-07-30T02:38:10.481Z,100190.66
2022-07-30T02:39:14.770Z,100184.22
2022-07-30T02:40:21.226Z,100186.22
2022-07-30T02:41:29.969Z,100187.38
2022-07-30T02:42:33.296Z,100180.91
2022-07-30T02:43:37.851Z,100184.06
2022-07-30T02:44:43.962Z,100190.81
2022-07-30T02:45:48.986Z,100179.59
2022-07-30T02:46:56.135Z,100183.88
2022-07-30T02:48:34.221Z,100185.88
2022-07-30T02:49:40.072Z,100185.88
2022-07-30T02:50:46.370Z,100182.56
2022-07-30T02:51:49.723Z,100185.38
2022-07-30T02:52:53.381Z,100185.38
2022-07-30T02:54:02.604Z,100187.72
2022-07-30T02:55:06.143Z,100180.44
2022-07-30T02:56:09.915Z,100180.44
2022-07-30T02:57:15.149Z,100181.59
2022-07-30T02:58:22.221Z,100177.13
2022-07-30T02:59:26.515Z,100182.75
2022-07-30T03:00:30.986Z,100178.31
2022-07-30T03:01:35.640Z,100185.88
2022-07-30T03:02:45.422Z,100185.06
2022-07-30T03:03:51.456Z,100183.06
2022-07-30T03:04:56.155Z,100183.41
2022-07-30T03:06:00.419Z,100186.22
2022-07-30T03:07:08.044Z,100178.94
2022-07-30T03:08:11.655Z,100179.78
2022-07-30T03:09:16.777Z,100181.75
2022-07-30T03:10:19.547Z,100179.28
2022-07-30T03:11:23.460Z,100177.28
2022-07-30T03:12:28.969Z,100182.91
2022-07-30T03:13:31.315Z,100180.44
2022-07-30T03:14:33.583Z,100180.44
2022-07-30T03:15:39.435Z,100182.44
2022-07-30T03:16:47.448Z,100190.34
2022-07-30T03:17:55.656Z,100191.50
2022-07-30T03:19:05.232Z,100187.06
2022-07-30T03:20:18.792Z,100186.53
2022-07-30T03:21:26.104Z,100185.72
2022-07-30T03:22:32.995Z,100183.75
2022-07-30T03:23:37.786Z,100188.53
2022-07-30T03:24:43.685Z,100186.88
2022-07-30T03:25:51.153Z,100190.84
2022-07-30T03:26:58.537Z,100191.16
2022-07-30T03:28:04.047Z,100183.91
2022-07-30T03:29:11.072Z,100190.66
2022-07-30T03:30:14.396Z,100195.44
2022-07-30T03:31:19.680Z,100192.66
2022-07-30T03:32:26.289Z,100186.22
2022-07-30T03:33:38.601Z,100189.34
2022-07-30T03:34:41.756Z,100191.34
2022-07-30T03:35:44.894Z,100192.47
2022-07-30T03:36:47.398Z,100192.00
2022-07-30T03:37:49.796Z,100195.28
2022-07-30T03:38:53.085Z,100192.00
2022-07-30T03:39:58.280Z,100193.97
2022-07-30T03:41:02.103Z,100187.53
2022-07-30T03:42:06.671Z,100192.00
2022-07-30T03:43:32.796Z,100192.31
2022-07-30T03:44:34.779Z,100187.88
2022-07-30T03:45:41.667Z,100189.03
2022-07-30T03:46:45.702Z,100184.22
2022-07-30T03:47:48.807Z,100183.41
2022-07-30T03:48:52.554Z,100188.19
2022-07-30T03:49:55.808Z,100180.94
2022-07-30T03:51:01.274Z,100191.31
2022-07-30T03:52:04.719Z,100186.88
2022-07-30T03:53:09.266Z,100191.66
2022-07-30T03:54:27.273Z,100197.25
2022-07-30T03:55:50.581Z,100192.00
2022-07-30T03:57:19.373Z,100191.16
2022-07-30T03:58:23.950Z,100187.84
2022-07-30T03:59:28.257Z,100194.25
2022-07-30T04:00:30.962Z,100195.44
2022-07-30T04:01:33.396Z,100195.44
2022-07-30T04:02:45.929Z,100197.38
2022-07-30T04:03:54.679Z,100201.34
2022-07-30T04:04:57.783Z,100194.09
2022-07-30T04:06:00.695Z,100195.72
2022-07-30T04:07:05.270Z,100194.09
2022-07-30T04:08:07.481Z,100201.66
2022-07-30T04:09:11.458Z,100200.84
2022-07-30T04:10:15.560Z,100198.06
2022-07-30T04:11:41.402Z,100203.66
2022-07-30T04:12:46.883Z,100202.00
2022-07-30T04:13:50.608Z,100197.22
2022-07-30T04:14:58.949Z,100189.13
2022-07-30T04:16:41.294Z,100191.94
2022-07-30T04:17:38.415Z,100191.13
2022-07-30T04:18:44.906Z,100190.28
2022-07-30T04:19:51.999Z,100188.66
2022-07-30T04:20:55.500Z,100182.22
2022-07-30T04:22:00.396Z,100187.81
2022-07-30T04:23:03.702Z,100193.75
2022-07-30T04:24:06.922Z,100196.56
2022-07-30T04:25:10.267Z,100192.94
2022-07-30T04:26:26.928Z,100198.84
2022-07-30T04:27:33.375Z,100200.50
2022-07-30T04:28:36.645Z,100202.50
2022-07-30T04:29:39.056Z,100196.03
2022-07-30T04:30:41.953Z,100196.03
2022-07-30T04:31:44.760Z,100198.84
2022-07-30T04:33:08.380Z,100199.19
2022-07-30T04:34:24.601Z,100198.38
2022-07-30T04:35:51.642Z,100201.16
2022-07-30T04:37:01.318Z,100200.31
2022-07-30T04:38:05.850Z,100208.72
2022-07-30T04:39:08.437Z,100215.19
2022-07-30T04:40:10.927Z,100210.72
2022-07-30T04:41:14.097Z,100207.91
2022-07-30T04:42:41.941Z,100205.44
2022-07-30T04:43:46.570Z,100206.59
2022-07-30T04:44:50.119Z,100210.25
2022-07-30T04:46:03.850Z,100205.44
2022-07-30T04:47:06.239Z,100206.59
2022-07-30T04:48:13.261Z,100201.84
2022-07-30T04:49:34.860Z,100199.84
2022-07-30T04:50:45.912Z,100202.63
2022-07-30T04:51:54.909Z,100196.22
2022-07-30T04:52:57.726Z,100204.63
2022-07-30T04:54:06.484Z,100205.44
2022-07-30T04:55:11.171Z,100205.44
2022-07-30T04:56:15.988Z,100209.06
2022-07-30T04:57:20.184Z,100205.13
2022-07-30T04:58:27.569Z,100206.78
2022-07-30T04:59:32.915Z,100200.31
2022-07-30T05:00:41.176Z,100208.44
2022-07-30T05:01:52.386Z,100204.78
2022-07-30T05:02:56.522Z,100207.59
2022-07-30T05:04:00.305Z,100200.84
2022-07-30T05:05:03.159Z,100202.50
2022-07-30T05:06:06.831Z,100199.69
2022-07-30T05:07:14.715Z,100200.50
2022-07-30T05:08:17.428Z,100203.81
2022-07-30T05:09:19.954Z,100201.81
2022-07-30T05:10:22.358Z,100197.06
2022-07-30T05:11:24.546Z,100202.34
2022-07-30T05:12:39.701Z,100204.28
2022-07-30T05:13:46.124Z,100195.88
2022-07-30T05:14:49.420Z,100201.19
2022-07-30T05:15:55.854Z,100203.66
2022-07-30T05:17:00.303Z,100198.88
2022-07-30T05:18:07.294Z,100196.91
2022-07-30T05:19:13.820Z,100202.19
2022-07-30T05:20:16.660Z,100196.56
2022-07-30T05:21:34.734Z,100192.94
2022-07-30T05:22:37.144Z,100197.06
2022-07-30T05:23:49.977Z,100197.06
2022-07-30T05:24:59.122Z,100198.72
2022-07-30T05:26:01.862Z,100200.69
2022-07-30T05:27:13.070Z,100200.69
2022-07-30T05:28:15.511Z,100204.31
2022-07-30T05:29:21.183Z,100207.13
2022-07-30T05:30:29.449Z,100205.19
2022-07-30T05:31:34.876Z,100195.59
2022-07-30T05:32:38.466Z,100201.22
2022-07-30T05:33:42.554Z,100206.81
2022-07-30T05:34:50.058Z,100214.06
2022-07-30T05:35:53.265Z,100199.25
2022-07-30T05:36:55.664Z,100206.50
2022-07-30T05:38:00.397Z,100203.72
2022-07-30T05:39:09.013Z,100210.13
2022-07-30T05:40:24.939Z,100205.34
2022-07-30T05:41:39.606Z,100205.34
2022-07-30T05:42:53.068Z,100206.19
2022-07-30T05:43:55.726Z,100202.19
2022-07-30T05:44:58.500Z,100196.59
2022-07-30T05:46:03.568Z,100195.78
2022-07-30T05:47:05.924Z,100204.19
2022-07-30T05:48:08.536Z,100202.19
2022-07-30T05:49:11.410Z,100206.19
2022-07-30T05:50:14.235Z,100210.94
2022-07-30T05:51:17.324Z,100198.09
2022-07-30T05:52:19.684Z,100198.41
2022-07-30T05:53:22.042Z,100206.81
2022-07-30T05:54:50.232Z,100202.66
2022-07-30T05:56:11.083Z,100210.59
2022-07-30T05:57:28.202Z,100208.59
2022-07-30T05:58:30.415Z,100215.34
2022-07-30T05:59:32.980Z,100216.53
2022-07-30T06:00:43.664Z,100204.00
2022-07-30T06:01:45.983Z,100211.56
2022-07-30T06:03:03.500Z,100202.66
2022-07-30T06:04:25.272Z,100201.81
2022-07-30T06:05:33.736Z,100202.97
2022-07-30T06:06:37.383Z,100201.34
2022-07-30T06:07:39.654Z,100206.09
2022-07-30T06:08:44.259Z,100203.63
2022-07-30T06:09:46.804Z,100206.78
2022-07-30T06:10:49.430Z,100210.38
2022-07-30T06:11:59.412Z,100209.06
2022-07-30T06:13:01.841Z,100209.06
2022-07-30T06:14:03.998Z,100213.03
2022-07-30T06:15:06.878Z,100209.72
2022-07-30T06:16:12.671Z,100208.91
2022-07-30T06:17:15.392Z,100219.28
2022-07-30T06:18:34.260Z,100222.41
2022-07-30T06:19:41.566Z,100227.19
2022-07-30T06:20:43.853Z,100217.94
2022-07-30T06:22:07.242Z,100225.88
2022-07-30T06:23:14.781Z,100215.81
2022-07-30T06:24:37.908Z,100223.72
2022-07-30T06:25:45.551Z,100222.88
2022-07-30T06:26:48.877Z,100224.38
2022-07-30T06:27:54.918Z,100221.91
2022-07-30T06:28:57.969Z,100224.69
2022-07-30T06:30:09.926Z,100228.66
2022-07-30T06:31:12.273Z,100222.19
2022-07-30T06:32:14.574Z,100234.25
2022-07-30T06:33:16.811Z,100227.00
2022-07-30T06:34:19.173Z,100228.97
2022-07-30T06:35:21.886Z,100220.06
2022-07-30T06:36:25.346Z,100226.00
2022-07-30T06:38:05.915Z,100229.28
2022-07-30T06:38:59.456Z,100227.13
2022-07-30T06:40:33.790Z,100229.59
2022-07-30T06:41:50.729Z,100236.06
2022-07-30T06:42:52.962Z,100242.81
2022-07-30T06:44:16.735Z,100239.19
2022-07-30T06:45:39.623Z,100244.47
2022-07-30T06:46:55.623Z,100242.47
2022-07-30T06:48:00.873Z,100242.81
2022-07-30T06:49:14.058Z,100241.97
2022-07-30T06:50:18.951Z,100240.81
2022-07-30T06:51:21.589Z,100243.59
2022-07-30T06:52:24.397Z,100247.59
2022-07-30T06:53:28.742Z,100248.41
2022-07-30T06:54:54.027Z,100249.22
2022-07-30T06:56:03.554Z,100247.25
2022-07-30T06:57:23.568Z,100246.09
2022-07-30T06:58:26.663Z,100245.78
2022-07-30T06:59:57.111Z,100249.41
2022-07-30T07:01:10.984Z,100251.06
2022-07-30T07:02:14.484Z,100255.50
2022-07-30T07:03:39.655Z,100250.72
2022-07-30T07:04:42.755Z,100256.00
2022-07-30T07:05:47.668Z,100251.25
2022-07-30T07:06:49.973Z,100257.66
2022-07-30T07:08:00.966Z,100263.78
2022-07-30T07:09:08.660Z,100253.38
2022-07-30T07:10:18.302Z,100254.19
2022-07-30T07:11:20.805Z,100267.06
2022-07-30T07:12:26.882Z,100261.13
2022-07-30T07:13:29.277Z,100255.53
2022-07-30T07:14:34.084Z,100260.81
2022-07-30T07:15:37.594Z,100260.50
2022-07-30T07:16:43.629Z,100260.16
2022-07-30T07:18:12.116Z,100257.03
2022-07-30T07:19:59.990Z,100265.09
2022-07-30T07:20:38.954Z,100262.31
2022-07-30T07:21:43.630Z,100259.16
2022-07-30T07:22:45.966Z,100265.63
2022-07-30T07:23:51.172Z,100266.09
2022-07-30T07:25:12.431Z,100272.56
2022-07-30T07:26:19.952Z,100268.59
2022-07-30T07:27:22.313Z,100270.22
2022-07-30T07:28:33.323Z,100266.28
2022-07-30T07:29:36.522Z,100271.06
2022-07-30T07:30:38.850Z,100270.75
2022-07-30T07:32:05.314Z,100267.13
2022-07-30T07:33:05.583Z,100273.22
2022-07-30T07:34:08.054Z,100272.06
2022-07-30T07:35:10.468Z,100270.91
2022-07-30T07:36:15.657Z,100274.22
2022-07-30T07:37:26.331Z,100268.59
2022-07-30T07:38:28.835Z,100271.41
2022-07-30T07:39:35.924Z,100269.44
2022-07-30T07:40:40.840Z,100270.25
2022-07-30T07:41:48.967Z,100276.38
2022-07-30T07:42:54.084Z,100277.19
2022-07-30T07:43:56.369Z,100273.28
2022-07-30T07:45:07.830Z,100272.47
2022-07-30T07:46:33.741Z,100276.06
2022-07-30T07:47:51.567Z,100274.09
2022-07-30T07:49:21.599Z,100270.13
2022-07-30T07:50:27.845Z,100269.31
2022-07-30T07:51:47.619Z,100274.94
2022-07-30T07:52:52.283Z,100276.06
2022-07-30T07:54:19.838Z,100265.69
2022-07-30T07:55:20.082Z,100273.28
2022-07-30T07:56:22.944Z,100280.53
2022-07-30T07:57:25.364Z,100277.72
2022-07-30T07:58:28.283Z,100285.31
2022-07-30T07:59:40.524Z,100280.53
2022-07-30T08:00:48.901Z,100282.19
2022-07-30T08:01:53.092Z,100284.16
2022-07-30T08:03:28.758Z,100287.81
2022-07-30T08:04:32.081Z,100283.50
2022-07-30T08:06:02.041Z,100286.63
2022-07-30T08:07:34.868Z,100287.47
2022-07-30T08:08:56.085Z,100279.41
2022-07-30T08:10:16.953Z,100283.81
2022-07-30T08:11:41.993Z,100282.19
2022-07-30T08:13:07.684Z,100283.81
2022-07-30T08:14:48.346Z,100287.47
2022-07-30T08:16:20.595Z,100295.88
2022-07-30T08:17:46.028Z,100287.47
2022-07-30T08:18:52.715Z,100292.22
2022-07-30T08:20:17.905Z,100295.03
2022-07-30T08:21:20.201Z,100285.47
2022-07-30T08:22:22.392Z,100293.06
2022-07-30T08:23:24.662Z,100286.28
2022-07-30T08:24:27.178Z,100290.75
2022-07-30T08:25:29.395Z,100289.59
2022-07-30T08:26:32.059Z,100300.50
2022-07-30T08:27:34.638Z,100294.88
2022-07-30T08:28:37.014Z,100292.91
2022-07-30T08:29:42.114Z,100302.66
2022-07-30T08:30:44.452Z,100290.94
2022-07-30T08:31:46.807Z,100293.75
2022-07-30T08:32:49.076Z,100290.13
2022-07-30T08:33:51.420Z,100295.41
2022-07-30T08:34:53.673Z,100294.25
2022-07-30T08:36:02.864Z,100297.06
2022-07-30T08:37:06.127Z,100293.41
2022-07-30T08:38:09.667Z,100297.06
2022-07-30T08:39:11.996Z,100292.59
2022-07-30T08:40:14.399Z,100302.16
2022-07-30T08:41:28.131Z,100302.97
2022-07-30T08:42:33.902Z,100297.34
2022-07-30T08:43:40.075Z,100307.75
2022-07-30T08:44:45.184Z,100308.56
2022-07-30T08:47:31.140Z,100302.16
2022-07-30T08:48:47.102Z,100306.59
2022-07-30T08:49:54.115Z,100312.22
2022-07-30T08:51:01.141Z,100306.94
2022-07-30T08:52:12.652Z,100311.69
2022-07-30T08:53:18.923Z,100317.31
2022-07-30T08:54:21.451Z,100312.03
2022-07-30T08:55:23.836Z,100311.22
2022-07-30T08:56:26.316Z,100310.03
2022-07-30T08:57:32.595Z,100309.22
2022-07-30T08:58:35.998Z,100311.22
2022-07-30T08:59:59.179Z,100315.97
2022-07-30T09:01:04.925Z,100306.75
2022-07-30T09:02:10.522Z,100319.94
2022-07-30T09:03:27.930Z,100317.97
2022-07-30T09:04:33.880Z,100319.94
2022-07-30T09:05:36.199Z,100319.13
2022-07-30T09:06:38.595Z,100315.97
2022-07-30T09:07:41.694Z,100317.66
2022-07-30T09:08:49.662Z,100319.31
2022-07-30T09:09:52.734Z,100318.44
2022-07-30T09:10:55.442Z,100326.56
2022-07-30T09:11:59.589Z,100322.59
2022-07-30T09:13:04.877Z,100323.09
2022-07-30T09:14:12.261Z,100321.09
2022-07-30T09:16:33.993Z,100311.88
2022-07-30T09:17:59.190Z,100315.19
2022-07-30T09:19:14.614Z,100314.03
2022-07-30T09:20:20.712Z,100318.47
2022-07-30T09:21:28.447Z,100315.34
2022-07-30T09:22:53.241Z,100315.34
2022-07-30T09:24:14.174Z,100317.00
2022-07-30T09:25:45.862Z,100316.69
2022-07-30T09:27:12.463Z,100320.31
2022-07-30T09:28:32.250Z,100316.69
2022-07-30T09:30:07.770Z,100327.41
2022-07-30T09:33:09.885Z,100330.53
2022-07-30T09:34:50.537Z,100326.09
2022-07-30T09:36:16.239Z,100331.19
2022-07-30T09:38:04.513Z,100326.72
2022-07-30T09:39:34.244Z,100329.53
2022-07-30T09:40:57.684Z,100327.56
2022-07-30T09:42:21.273Z,100339.09
2022-07-30T09:43:27.692Z,100337.78
2022-07-30T09:44:38.896Z,100341.41
2022-07-30T09:45:57.259Z,100339.75
2022-07-30T09:47:01.422Z,100339.75
2022-07-30T09:48:21.179Z,100336.94
2022-07-30T09:49:27.927Z,100326.88
2022-07-30T09:50:34.004Z,100334.47
2022-07-30T09:51:54.226Z,100332.81
2022-07-30T09:53:12.039Z,100336.75
2022-07-30T09:54:19.972Z,100331.66
2022-07-30T09:55:41.387Z,100331.16
2022-07-30T09:56:53.661Z,100341.22
2022-07-30T09:57:59.122Z,100333.66
2022-07-30T09:59:18.734Z,100327.19
2022-07-30T10:00:24.711Z,100333.66
2022-07-30T10:02:01.010Z,100333.66
2022-07-30T10:03:33.767Z,100334.47
2022-07-30T10:05:14.116Z,100331.66
2022-07-30T10:06:17.268Z,100331.66
2022-07-30T10:07:25.350Z,100331.66
2022-07-30T10:08:55.600Z,100327.19
2022-07-30T10:10:00.211Z,100333.66
2022-07-30T10:11:08.579Z,100334.47
2022-07-30T10:12:14.088Z,100334.13
2022-07-30T10:13:21.150Z,100330.19
2022-07-30T10:14:30.778Z,100329.38
2022-07-30T10:15:37.216Z,100328.53
2022-07-30T10:16:41.697Z,100333.00
2022-07-30T10:17:44.068Z,100335.78
2022-07-30T10:18:57.630Z,100339.41
2022-07-30T10:20:21.709Z,100336.31
2022-07-30T10:21:43.470Z,100335.47
2022-07-30T10:22:57.595Z,100333.16
2022-07-30T10:24:12.622Z,100337.63
2022-07-30T10:25:35.244Z,100332.03
2022-07-30T10:26:59.886Z,100337.28
2022-07-30T10:28:54.718Z,100343.72
2022-07-30T10:29:59.527Z,100340.91
2022-07-30T10:31:46.903Z,100346.53
2022-07-30T10:32:30.826Z,100344.22
2022-07-30T10:33:34.820Z,100336.97
2022-07-30T10:34:42.564Z,100346.19
2022-07-30T10:35:45.096Z,100347.03
2022-07-30T10:36:57.931Z,100345.03
2022-07-30T10:38:01.300Z,100348.69
2022-07-30T10:39:06.006Z,100344.72
2022-07-30T10:40:17.386Z,100347.50
2022-07-30T10:41:44.264Z,100348.38
2022-07-30T10:43:16.172Z,100339.94
2022-07-30T10:44:51.511Z,100346.03
2022-07-30T10:46:10.476Z,100343.22
2022-07-30T10:47:34.622Z,100345.75
2022-07-30T10:48:39.291Z,100346.56
2022-07-30T10:49:43.409Z,100342.28
2022-07-30T10:50:54.602Z,100345.88
2022-07-30T10:51:58.751Z,100349.53
2022-07-30T10:53:03.077Z,100344.75
2022-07-30T10:54:05.771Z,100343.59
2022-07-30T10:55:15.685Z,100346.06
2022-07-30T10:56:26.129Z,100351.34
2022-07-30T10:57:32.410Z,100349.06
2022-07-30T10:58:59.651Z,100346.72
2022-07-30T11:00:05.330Z,100351.19
2022-07-30T11:01:18.469Z,100356.16
2022-07-30T11:02:23.072Z,100351.53
2022-07-30T11:03:40.750Z,100346.41
2022-07-30T11:04:47.167Z,100345.78
2022-07-30T11:05:52.712Z,100337.50
2022-07-30T11:07:24.078Z,100343.28
2022-07-30T11:08:31.755Z,100338.66
2022-07-30T11:10:04.994Z,100339.69
2022-07-30T11:11:28.675Z,100342.34
2022-07-30T11:12:53.017Z,100342.16
2022-07-30T11:13:57.933Z,100334.78
2022-07-30T11:15:06.843Z,100337.72
2022-07-30T11:16:21.254Z,100340.34
2022-07-30T11:17:24.259Z,100337.38
2022-07-30T11:18:28.832Z,100342.81
2022-07-30T11:20:04.339Z,100336.22
2022-07-30T11:21:21.394Z,100330.78
2022-07-30T11:22:31.508Z,100331.75
2022-07-30T11:23:39.245Z,100327.13
2022-07-30T11:24:46.263Z,100326.09
2022-07-30T11:25:51.238Z,100335.19
2022-07-30T11:26:54.419Z,100335.38
2022-07-30T11:27:57.638Z,100333.19
2022-07-30T11:29:02.395Z,100327.75
2022-07-30T11:30:26.233Z,100329.53
2022-07-30T11:31:56.813Z,100333.84
2022-07-30T11:33:04.288Z,100338.13
2022-07-30T11:34:32.758Z,100329.53
2022-07-30T11:35:35.643Z,100328.84
2022-07-30T11:36:58.102Z,100331.81
2022-07-30T11:39:10.389Z,100326.97
2022-07-30T11:40:13.254Z,100329.59
2022-07-30T11:41:21.025Z,100324.13
2022-07-30T11:42:34.864Z,100321.59
2022-07-30T11:43:37.227Z,100327.03
2022-07-30T11:44:39.515Z,100325.19
2022-07-30T11:45:41.954Z,100323.00
2022-07-30T11:46:50.428Z,100317.19
2022-07-30T11:47:56.837Z,100324.59
2022-07-30T11:49:10.331Z,100324.09
2022-07-30T11:50:32.683Z,100321.22
2022-07-30T11:51:41.345Z,100321.16
2022-07-30T11:52:46.511Z,100323.44
2022-07-30T11:54:02.605Z,100326.19
2022-07-30T11:55:05.417Z,100324.78
2022-07-30T11:56:09.577Z,100326.25
2022-07-30T11:57:16.129Z,100323.72
2022-07-30T11:58:35.011Z,100327.13
2022-07-30T12:00:02.042Z,100329.91
2022-07-30T12:01:09.523Z,100325.72
2022-07-30T12:02:15.199Z,100325.16
2022-07-30T12:03:19.459Z,100324.94
2022-07-30T12:04:21.921Z,100328.72
2022-07-30T12:05:26.524Z,100326.03
2022-07-30T12:06:28.781Z,100329.78
2022-07-30T12:07:32.134Z,100334.38
2022-07-30T12:08:42.430Z,100337.31
2022-07-30T12:09:44.635Z,100339.44
2022-07-30T12:11:02.239Z,100335.94
2022-07-30T12:12:23.686Z,100336.06
2022-07-30T12:13:44.066Z,100339.69
2022-07-30T12:14:48.830Z,100339.34
2022-07-30T12:15:51.347Z,100340.63
2022-07-30T12:16:54.547Z,100341.47
2022-07-30T12:18:11.070Z,100332.19
2022-07-30T12:19:19.265Z,100338.31
2022-07-30T12:20:21.789Z,100337.94
2022-07-30T12:21:24.945Z,100337.59
2022-07-30T12:22:27.253Z,100344.88
2022-07-30T12:23:31.333Z,100338.41
2022-07-30T12:24:36.699Z,100340.06
2022-07-30T12:25:47.855Z,100331.59
2022-07-30T12:27:07.074Z,100339.25
2022-07-30T12:28:13.140Z,100342.88
2022-07-30T12:29:17.107Z,100340.91
2022-07-30T12:30:21.139Z,100339.25
2022-07-30T12:31:23.883Z,100343.38
2022-07-30T12:32:28.676Z,100336.88
2022-07-30T12:33:33.498Z,100342.53
2022-07-30T12:34:35.742Z,100342.19
2022-07-30T12:35:46.390Z,100341.34
2022-07-30T12:36:49.160Z,100340.69
2022-07-30T12:38:07.406Z,100339.50
2022-07-30T12:39:20.411Z,100342.00
2022-07-30T12:40:22.871Z,100338.47
2022-07-30T12:41:48.521Z,100336.94
2022-07-30T12:42:52.090Z,100337.75
2022-07-30T12:43:55.945Z,100338.25
2022-07-30T12:44:58.476Z,100342.38
2022-07-30T12:46:00.776Z,100332.38
2022-07-30T12:47:07.582Z,100340.47
2022-07-30T12:48:11.349Z,100337.78
2022-07-30T12:49:22.000Z,100328.97
2022-07-30T12:50:26.556Z,100327.94
2022-07-30T12:51:35.042Z,100330.84
2022-07-30T12:52:40.137Z,100324.16
2022-07-30T12:53:42.452Z,100333.56
2022-07-30T12:54:44.724Z,100333.69
2022-07-30T12:55:47.023Z,100331.00
2022-07-30T12:56:59.964Z,100330.75
2022-07-30T12:58:08.385Z,100329.22
2022-07-30T12:59:22.543Z,100320.53
2022-07-30T13:00:52.034Z,100324.28
2022-07-30T13:01:54.464Z,100331.25
2022-07-30T13:02:57.535Z,100327.34
2022-07-30T13:04:06.826Z,100319.81
2022-07-30T13:05:12.264Z,100331.22
2022-07-30T13:06:25.697Z,100325.69
2022-07-30T13:07:32.512Z,100326.63
2022-07-30T13:08:56.485Z,100332.75
2022-07-30T13:10:12.691Z,100334.34
2022-07-30T13:11:15.563Z,100336.84
2022-07-30T13:12:17.821Z,100337.66